Innovator — WDG7137 — position and weather

sailwx.info

Track history (hours):
 
Tides and Currents Weather Stations Pressure Air Temp Water Temp Dewpoint Dewpoint Depression Visibility Wind Speed Wind Dir Waves Ship Positions

Innovator

Owner: Enterprise Marine Services, LLC, San Antonio, TX. More information available from US FCC via Universal Licensing System and Coast Guard Vessel Documentation Center.

Last reported at 2018-Jun-25 08:58 UTC. Time now 2018-Jun-25 09:26 UTC.
Position N 29°22' W 094°48'.

Length 23 m; draft 2.7 m.

Type: . MMSI: 367564240.

Date/timePositionNaut miles runAvg speedWind from/ knotsBaromVisibWave heightAir tempDewpointWater temp
2018-Jun-25 08:58N 29°22' W 094°48'4 1.7
2018-Jun-25 06:30N 29°25' W 094°44'0 0.0
2018-Jun-25 04:42N 29°24' W 094°44'0 0.0
2018-Jun-25 04:27N 29°24' W 094°44'0 0.0
2018-Jun-23 08:13N 29°24' W 094°44'0 0.0
2018-Jun-23 07:48N 29°24' W 094°44'0 0.0
2018-Jun-23 06:23N 29°24' W 094°44'0 0.0
2018-Jun-23 05:58N 29°24' W 094°44'0 0.0
2018-Jun-23 05:28N 29°24' W 094°44'0 0.0
2018-Jun-23 05:00N 29°24' W 094°44'0 0.0
2018-Jun-23 04:29N 29°24' W 094°44'0 0.0
2018-Jun-23 03:59N 29°24' W 094°44'0 0.0
2018-Jun-23 03:30N 29°24' W 094°44'0 0.0
2018-Jun-23 03:00N 29°24' W 094°44'0 0.0
2018-Jun-23 02:30N 29°24' W 094°44'0 0.0
2018-Jun-23 01:59N 29°24' W 094°44'0 0.0
2018-Jun-23 01:27N 29°24' W 094°44'0 0.0
2018-Jun-23 00:57N 29°24' W 094°44'0 0.0
2018-Jun-23 00:28N 29°24' W 094°44'0 0.0
2018-Jun-22 18:37N 29°24' W 094°44'0 0.5
2018-Jun-22 18:22N 29°24' W 094°45'0 0.0
2018-Jun-22 06:25N 29°24' W 094°44'0 0.0
2018-Jun-22 05:47N 29°24' W 094°44'0 0.0
2018-Jun-22 05:09N 29°24' W 094°44'0 0.0
2018-Jun-22 04:54N 29°24' W 094°44'0 0.0
2018-Jun-22 04:16N 29°24' W 094°44'0 0.0
2018-Jun-22 03:57N 29°24' W 094°44'0 0.0
2018-Jun-22 03:30N 29°24' W 094°44'0 0.0
2018-Jun-22 03:00N 29°24' W 094°44'0 0.0
2018-Jun-22 02:21N 29°24' W 094°44'0 0.0
2018-Jun-22 01:56N 29°24' W 094°44'0 0.0
2018-Jun-22 01:22N 29°24' W 094°44'0 0.0
2018-Jun-22 01:00N 29°24' W 094°44'0 0.0
2018-Jun-22 00:29N 29°24' W 094°44'0 0.0
2018-Jun-21 23:58N 29°24' W 094°44'0 0.0
2018-Jun-21 23:30N 29°24' W 094°44'0 0.0
2018-Jun-21 22:44N 29°24' W 094°44'0 0.0
2018-Jun-21 22:27N 29°24' W 094°44'0 0.1
2018-Jun-21 22:00N 29°25' W 094°44'0 0.0
2018-Jun-21 21:28N 29°25' W 094°44'0 0.1
2018-Jun-21 20:59N 29°24' W 094°44'0 0.0
2018-Jun-21 20:30N 29°24' W 094°44'0 0.0
2018-Jun-21 19:59N 29°24' W 094°44'0 0.2
2018-Jun-21 19:30N 29°25' W 094°44'0 0.0
2018-Jun-21 18:58N 29°25' W 094°44'0 0.0
2018-Jun-21 18:22N 29°25' W 094°44'0 0.0
2018-Jun-21 17:59N 29°25' W 094°44'23 1.4
2018-Jun-21 00:57N 29°42' W 095°01'2 5.0
2018-Jun-21 00:29N 29°41' W 094°59'3 5.6
2018-Jun-21 00:00N 29°38' W 094°58'3 5.6
2018-Jun-20 23:30N 29°36' W 094°57'10 6.1
2018-Jun-20 21:50N 29°27' W 094°51'2 6.4
2018-Jun-20 21:30N 29°25' W 094°50'3 6.3
2018-Jun-20 21:00N 29°23' W 094°48'4 5.9
2018-Jun-20 20:24N 29°25' W 094°44'0 0.3
2018-Jun-20 19:30N 29°24' W 094°45'0 0.0
2018-Jun-20 13:10N 29°24' W 094°45'0 0.1
2018-Jun-20 12:25N 29°24' W 094°45'0 0.0
2018-Jun-20 12:00N 29°24' W 094°45'29 2.9
2018-Jun-20 01:54N 29°47' W 095°05'0 0.8
2018-Jun-20 01:25N 29°47' W 095°04'  
Track history (hours):
 
Tides and Currents Weather Stations Pressure Air Temp Water Temp Dewpoint Dewpoint Depression Visibility Wind Speed Wind Dir Waves Ship Positions

Innovator

Owner: Enterprise Marine Services, LLC, San Antonio, TX. More information available from US FCC via Universal Licensing System and Coast Guard Vessel Documentation Center.

Last reported at 2018-Jun-25 08:58 UTC. Time now 2018-Jun-25 09:26 UTC.
Position N 29°22' W 094°48'.

Length 23 m; draft 2.7 m.

Type: . MMSI: 367564240.

Date/timePositionNaut miles runAvg speedWind from/ knotsBaromVisibWave heightAir tempDewpointWater temp
2018-Jun-25 08:58N 29°22' W 094°48'4 1.7
2018-Jun-25 06:30N 29°25' W 094°44'0 0.0
2018-Jun-25 04:42N 29°24' W 094°44'0 0.0
2018-Jun-25 04:27N 29°24' W 094°44'0 0.0
2018-Jun-23 08:13N 29°24' W 094°44'0 0.0
2018-Jun-23 07:48N 29°24' W 094°44'0 0.0
2018-Jun-23 06:23N 29°24' W 094°44'0 0.0
2018-Jun-23 05:58N 29°24' W 094°44'0 0.0
2018-Jun-23 05:28N 29°24' W 094°44'0 0.0
2018-Jun-23 05:00N 29°24' W 094°44'0 0.0
2018-Jun-23 04:29N 29°24' W 094°44'0 0.0
2018-Jun-23 03:59N 29°24' W 094°44'0 0.0
2018-Jun-23 03:30N 29°24' W 094°44'0 0.0
2018-Jun-23 03:00N 29°24' W 094°44'0 0.0
2018-Jun-23 02:30N 29°24' W 094°44'0 0.0
2018-Jun-23 01:59N 29°24' W 094°44'0 0.0
2018-Jun-23 01:27N 29°24' W 094°44'0 0.0
2018-Jun-23 00:57N 29°24' W 094°44'0 0.0
2018-Jun-23 00:28N 29°24' W 094°44'0 0.0
2018-Jun-22 18:37N 29°24' W 094°44'0 0.5
2018-Jun-22 18:22N 29°24' W 094°45'0 0.0
2018-Jun-22 06:25N 29°24' W 094°44'0 0.0
2018-Jun-22 05:47N 29°24' W 094°44'0 0.0
2018-Jun-22 05:09N 29°24' W 094°44'0 0.0
2018-Jun-22 04:54N 29°24' W 094°44'0 0.0
2018-Jun-22 04:16N 29°24' W 094°44'0 0.0
2018-Jun-22 03:57N 29°24' W 094°44'0 0.0
2018-Jun-22 03:30N 29°24' W 094°44'0 0.0
2018-Jun-22 03:00N 29°24' W 094°44'0 0.0
2018-Jun-22 02:21N 29°24' W 094°44'0 0.0
2018-Jun-22 01:56N 29°24' W 094°44'0 0.0
2018-Jun-22 01:22N 29°24' W 094°44'0 0.0
2018-Jun-22 01:00N 29°24' W 094°44'0 0.0
2018-Jun-22 00:29N 29°24' W 094°44'0 0.0
2018-Jun-21 23:58N 29°24' W 094°44'0 0.0
2018-Jun-21 23:30N 29°24' W 094°44'0 0.0
2018-Jun-21 22:44N 29°24' W 094°44'0 0.0
2018-Jun-21 22:27N 29°24' W 094°44'0 0.1
2018-Jun-21 22:00N 29°25' W 094°44'0 0.0
2018-Jun-21 21:28N 29°25' W 094°44'0 0.1
2018-Jun-21 20:59N 29°24' W 094°44'0 0.0
2018-Jun-21 20:30N 29°24' W 094°44'0 0.0
2018-Jun-21 19:59N 29°24' W 094°44'0 0.2
2018-Jun-21 19:30N 29°25' W 094°44'0 0.0
2018-Jun-21 18:58N 29°25' W 094°44'0 0.0
2018-Jun-21 18:22N 29°25' W 094°44'0 0.0
2018-Jun-21 17:59N 29°25' W 094°44'23 1.4
2018-Jun-21 00:57N 29°42' W 095°01'2 5.0
2018-Jun-21 00:29N 29°41' W 094°59'3 5.6
2018-Jun-21 00:00N 29°38' W 094°58'3 5.6
2018-Jun-20 23:30N 29°36' W 094°57'10 6.1
2018-Jun-20 21:50N 29°27' W 094°51'2 6.4
2018-Jun-20 21:30N 29°25' W 094°50'3 6.3
2018-Jun-20 21:00N 29°23' W 094°48'4 5.9
2018-Jun-20 20:24N 29°25' W 094°44'0 0.3
2018-Jun-20 19:30N 29°24' W 094°45'0 0.0
2018-Jun-20 13:10N 29°24' W 094°45'0 0.1
2018-Jun-20 12:25N 29°24' W 094°45'0 0.0
2018-Jun-20 12:00N 29°24' W 094°45'29 2.9
2018-Jun-20 01:54N 29°47' W 095°05'0 0.8
2018-Jun-20 01:25N 29°47' W 095°04'  

Dump ship's entire track history